sensor_id;sensor_type;location;lat;lon;timestamp;pressure;altitude;pressure_sealevel;temperature;humidity
79400;BME280;68856;45.586;10.264;2023-05-10T00:01:34;99035.22;;;17.10;59.17
79400;BME280;68856;45.586;10.264;2023-05-10T00:04:00;99036.16;;;16.73;59.11
79400;BME280;68856;45.586;10.264;2023-05-10T00:06:26;99025.84;;;16.83;60.27
79400;BME280;68856;45.586;10.264;2023-05-10T00:08:53;99020.38;;;16.97;59.34
79400;BME280;68856;45.586;10.264;2023-05-10T00:11:20;99026.56;;;16.89;58.68
79400;BME280;68856;45.586;10.264;2023-05-10T00:13:46;99024.03;;;16.93;59.27
79400;BME280;68856;45.586;10.264;2023-05-10T00:16:13;99026.25;;;16.77;59.06
79400;BME280;68856;45.586;10.264;2023-05-10T00:18:39;99029.53;;;16.93;59.61
79400;BME280;68856;45.586;10.264;2023-05-10T00:21:06;99024.94;;;17.02;57.93
79400;BME280;68856;45.586;10.264;2023-05-10T00:23:32;99038.75;;;16.97;59.34
79400;BME280;68856;45.586;10.264;2023-05-10T00:25:59;99030.84;;;17.09;59.50
79400;BME280;68856;45.586;10.264;2023-05-10T00:28:26;99041.13;;;17.03;59.89
79400;BME280;68856;45.586;10.264;2023-05-10T00:30:53;99032.16;;;17.11;59.14
79400;BME280;68856;45.586;10.264;2023-05-10T00:33:19;99044.16;;;17.02;60.67
79400;BME280;68856;45.586;10.264;2023-05-10T00:35:45;99041.53;;;17.10;62.80
79400;BME280;68856;45.586;10.264;2023-05-10T00:38:11;99038.59;;;17.20;63.29
79400;BME280;68856;45.586;10.264;2023-05-10T00:40:37;99032.00;;;17.21;62.77
79400;BME280;68856;45.586;10.264;2023-05-10T00:43:04;99031.91;;;16.67;61.00
79400;BME280;68856;45.586;10.264;2023-05-10T00:45:34;99026.16;;;16.96;62.07
79400;BME280;68856;45.586;10.264;2023-05-10T00:48:01;99024.38;;;17.18;62.48
79400;BME280;68856;45.586;10.264;2023-05-10T00:50:28;99029.72;;;16.96;63.41
79400;BME280;68856;45.586;10.264;2023-05-10T00:52:55;99025.69;;;17.21;62.53
79400;BME280;68856;45.586;10.264;2023-05-10T00:55:21;99017.75;;;17.06;64.25
79400;BME280;68856;45.586;10.264;2023-05-10T00:57:48;99012.25;;;17.06;64.62
79400;BME280;68856;45.586;10.264;2023-05-10T01:00:15;99008.59;;;16.97;63.41
79400;BME280;68856;45.586;10.264;2023-05-10T01:02:47;99009.91;;;16.99;64.17
79400;BME280;68856;45.586;10.264;2023-05-10T01:05:15;98995.81;;;17.06;63.12
79400;BME280;68856;45.586;10.264;2023-05-10T01:07:41;98984.97;;;16.68;63.82
79400;BME280;68856;45.586;10.264;2023-05-10T01:10:08;98999.81;;;16.81;63.25
79400;BME280;68856;45.586;10.264;2023-05-10T01:12:38;98990.53;;;16.63;63.27
79400;BME280;68856;45.586;10.264;2023-05-10T01:15:08;98983.22;;;16.59;62.33
79400;BME280;68856;45.586;10.264;2023-05-10T01:17:38;98977.38;;;16.79;63.03
79400;BME280;68856;45.586;10.264;2023-05-10T01:20:06;98967.41;;;16.83;62.32
79400;BME280;68856;45.586;10.264;2023-05-10T01:36:05;98969.84;;;16.85;62.12
79400;BME280;68856;45.586;10.264;2023-05-10T01:41:55;98970.47;;;16.81;61.46
79400;BME280;68856;45.586;10.264;2023-05-10T01:49:37;98971.47;;;16.72;61.61
79400;BME280;68856;45.586;10.264;2023-05-10T01:52:14;98971.53;;;16.53;64.49
79400;BME280;68856;45.586;10.264;2023-05-10T01:55:01;98975.88;;;16.54;61.76
79400;BME280;68856;45.586;10.264;2023-05-10T01:57:33;98965.44;;;16.56;63.62
79400;BME280;68856;45.586;10.264;2023-05-10T02:00:02;98971.47;;;16.72;63.52
79400;BME280;68856;45.586;10.264;2023-05-10T02:02:33;98972.91;;;16.51;62.74
79400;BME280;68856;45.586;10.264;2023-05-10T02:05:00;98966.69;;;16.64;61.36
79400;BME280;68856;45.586;10.264;2023-05-10T02:07:28;98975.53;;;16.74;60.99
79400;BME280;68856;45.586;10.264;2023-05-10T02:09:55;98977.56;;;16.69;62.13
79400;BME280;68856;45.586;10.264;2023-05-10T02:12:23;98964.53;;;16.61;61.39
79400;BME280;68856;45.586;10.264;2023-05-10T02:14:51;98975.19;;;16.62;61.62
79400;BME280;68856;45.586;10.264;2023-05-10T02:17:19;98974.00;;;16.50;61.95
79400;BME280;68856;45.586;10.264;2023-05-10T02:19:47;98972.03;;;16.55;62.58
79400;BME280;68856;45.586;10.264;2023-05-10T02:22:14;98970.03;;;16.42;63.52
79400;BME280;68856;45.586;10.264;2023-05-10T02:24:41;98971.59;;;16.48;61.42
79400;BME280;68856;45.586;10.264;2023-05-10T02:27:10;98968.38;;;16.60;60.92
79400;BME280;68856;45.586;10.264;2023-05-10T02:29:38;98974.59;;;16.47;61.40
79400;BME280;68856;45.586;10.264;2023-05-10T02:32:05;98978.56;;;16.59;62.71
79400;BME280;68856;45.586;10.264;2023-05-10T02:34:32;98968.56;;;16.31;62.29
79400;BME280;68856;45.586;10.264;2023-05-10T02:36:59;98976.50;;;16.33;62.97
79400;BME280;68856;45.586;10.264;2023-05-10T02:39:29;98979.75;;;16.53;61.33
79400;BME280;68856;45.586;10.264;2023-05-10T02:41:56;98976.94;;;16.40;63.20
79400;BME280;68856;45.586;10.264;2023-05-10T02:44:23;98982.63;;;16.62;62.38
79400;BME280;68856;45.586;10.264;2023-05-10T02:46:52;98974.06;;;16.31;62.09
79400;BME280;68856;45.586;10.264;2023-05-10T02:49:18;98977.88;;;16.49;64.13
79400;BME280;68856;45.586;10.264;2023-05-10T02:51:49;98980.66;;;16.62;62.92
79400;BME280;68856;45.586;10.264;2023-05-10T02:54:20;98983.66;;;16.47;62.73
79400;BME280;68856;45.586;10.264;2023-05-10T02:56:59;98981.31;;;16.73;64.42
79400;BME280;68856;45.586;10.264;2023-05-10T02:59:26;98977.25;;;16.70;65.83
79400;BME280;68856;45.586;10.264;2023-05-10T03:01:53;98967.09;;;16.71;64.55
79400;BME280;68856;45.586;10.264;2023-05-10T03:04:19;98967.09;;;16.71;65.80
79400;BME280;68856;45.586;10.264;2023-05-10T03:06:46;98966.28;;;16.84;64.96
79400;BME280;68856;45.586;10.264;2023-05-10T03:09:13;98967.59;;;16.73;66.17
79400;BME280;68856;45.586;10.264;2023-05-10T03:12:01;98969.34;;;16.83;65.73
79400;BME280;68856;45.586;10.264;2023-05-10T03:17:22;98974.59;;;16.65;65.49
79400;BME280;68856;45.586;10.264;2023-05-10T03:19:53;98968.47;;;16.55;67.09
79400;BME280;68856;45.586;10.264;2023-05-10T03:22:30;98973.16;;;16.68;66.65
79400;BME280;68856;45.586;10.264;2023-05-10T03:24:57;98970.66;;;16.71;66.38
79400;BME280;68856;45.586;10.264;2023-05-10T03:27:26;98965.88;;;16.77;66.21
79400;BME280;68856;45.586;10.264;2023-05-10T03:29:54;98966.50;;;16.74;66.26
79400;BME280;68856;45.586;10.264;2023-05-10T03:32:21;98959.69;;;16.71;66.60
79400;BME280;68856;45.586;10.264;2023-05-10T03:34:48;98953.78;;;16.78;66.53
79400;BME280;68856;45.586;10.264;2023-05-10T03:37:14;98950.94;;;16.69;66.81
79400;BME280;68856;45.586;10.264;2023-05-10T03:39:40;98954.38;;;16.61;66.78
79400;BME280;68856;45.586;10.264;2023-05-10T03:42:06;98949.19;;;16.60;66.26
79400;BME280;68856;45.586;10.264;2023-05-10T03:44:33;98953.25;;;16.62;66.16
79400;BME280;68856;45.586;10.264;2023-05-10T03:46:59;98946.06;;;16.66;65.46
79400;BME280;68856;45.586;10.264;2023-05-10T03:49:25;98935.81;;;16.72;65.08
79400;BME280;68856;45.586;10.264;2023-05-10T03:51:52;98943.94;;;16.45;66.59
79400;BME280;68856;45.586;10.264;2023-05-10T03:54:18;98937.03;;;16.47;66.70
79400;BME280;68856;45.586;10.264;2023-05-10T03:56:44;98949.22;;;15.90;68.42
79400;BME280;68856;45.586;10.264;2023-05-10T03:59:10;98937.94;;;16.43;67.04
79400;BME280;68856;45.586;10.264;2023-05-10T04:01:37;98937.63;;;16.63;66.84
79400;BME280;68856;45.586;10.264;2023-05-10T04:04:03;98944.94;;;16.67;66.31
79400;BME280;68856;45.586;10.264;2023-05-10T04:06:29;98937.31;;;16.64;66.79
79400;BME280;68856;45.586;10.264;2023-05-10T04:08:56;98938.44;;;16.63;66.86
79400;BME280;68856;45.586;10.264;2023-05-10T04:11:25;98936.91;;;16.71;66.87
79400;BME280;68856;45.586;10.264;2023-05-10T04:13:52;98929.00;;;16.69;66.77
79400;BME280;68856;45.586;10.264;2023-05-10T04:16:18;98926.75;;;16.71;66.59
79400;BME280;68856;45.586;10.264;2023-05-10T04:18:44;98919.44;;;16.67;67.45
79400;BME280;68856;45.586;10.264;2023-05-10T04:21:14;98930.31;;;16.72;66.86
79400;BME280;68856;45.586;10.264;2023-05-10T04:23:41;98924.84;;;16.72;67.16
79400;BME280;68856;45.586;10.264;2023-05-10T04:26:07;98929.31;;;16.81;66.38
79400;BME280;68856;45.586;10.264;2023-05-10T04:28:33;98929.03;;;16.51;66.73
79400;BME280;68856;45.586;10.264;2023-05-10T04:31:03;98925.22;;;16.65;66.70
79400;BME280;68856;45.586;10.264;2023-05-10T04:33:30;98917.94;;;16.74;66.64
79400;BME280;68856;45.586;10.264;2023-05-10T04:35:57;98921.38;;;16.66;66.74
79400;BME280;68856;45.586;10.264;2023-05-10T04:38:23;98923.66;;;16.46;67.11
79400;BME280;68856;45.586;10.264;2023-05-10T04:40:49;98921.97;;;16.63;67.50
79400;BME280;68856;45.586;10.264;2023-05-10T04:43:16;98921.00;;;16.41;67.47
79400;BME280;68856;45.586;10.264;2023-05-10T04:45:42;98920.88;;;16.32;67.19
79400;BME280;68856;45.586;10.264;2023-05-10T04:48:08;98924.09;;;16.53;67.34
79400;BME280;68856;45.586;10.264;2023-05-10T04:50:35;98926.97;;;16.61;66.94
79400;BME280;68856;45.586;10.264;2023-05-10T04:53:01;98918.91;;;16.65;66.79
79400;BME280;68856;45.586;10.264;2023-05-10T04:55:27;98924.81;;;16.58;67.44
79400;BME280;68856;45.586;10.264;2023-05-10T04:57:54;98926.84;;;16.53;67.00
79400;BME280;68856;45.586;10.264;2023-05-10T05:00:23;98927.13;;;16.51;67.07
79400;BME280;68856;45.586;10.264;2023-05-10T05:02:49;98925.03;;;16.30;68.22
79400;BME280;68856;45.586;10.264;2023-05-10T05:05:16;98930.31;;;16.40;67.97
79400;BME280;68856;45.586;10.264;2023-05-10T05:07:42;98927.41;;;16.50;67.82
79400;BME280;68856;45.586;10.264;2023-05-10T05:10:09;98933.63;;;16.55;67.56
79400;BME280;68856;45.586;10.264;2023-05-10T05:12:35;98931.94;;;16.59;67.57
79400;BME280;68856;45.586;10.264;2023-05-10T05:15:02;98937.00;;;16.66;67.45
79400;BME280;68856;45.586;10.264;2023-05-10T05:17:30;98938.75;;;16.62;67.70
79400;BME280;68856;45.586;10.264;2023-05-10T05:19:57;98934.59;;;16.64;68.13
79400;BME280;68856;45.586;10.264;2023-05-10T05:22:23;98938.66;;;16.67;68.49
79400;BME280;68856;45.586;10.264;2023-05-10T05:24:57;98940.56;;;16.66;68.13
79400;BME280;68856;45.586;10.264;2023-05-10T05:27:24;98929.25;;;16.54;68.66
79400;BME280;68856;45.586;10.264;2023-05-10T05:29:55;98949.50;;;16.58;68.13
79400;BME280;68856;45.586;10.264;2023-05-10T05:32:22;98953.25;;;16.62;68.01
79400;BME280;68856;45.586;10.264;2023-05-10T05:34:49;98962.09;;;16.59;68.04
79400;BME280;68856;45.586;10.264;2023-05-10T05:37:16;98959.38;;;16.59;68.47
79400;BME280;68856;45.586;10.264;2023-05-10T05:39:43;98957.97;;;16.43;69.21
79400;BME280;68856;45.586;10.264;2023-05-10T05:42:11;98964.19;;;16.49;68.96
79400;BME280;68856;45.586;10.264;2023-05-10T05:44:37;98963.31;;;16.53;69.06
79400;BME280;68856;45.586;10.264;2023-05-10T05:47:04;98971.78;;;16.52;69.38
79400;BME280;68856;45.586;10.264;2023-05-10T05:49:30;98967.28;;;16.61;68.77
79400;BME280;68856;45.586;10.264;2023-05-10T05:52:04;98973.25;;;16.63;69.27
79400;BME280;68856;45.586;10.264;2023-05-10T05:54:30;98966.88;;;16.67;69.33
79400;BME280;68856;45.586;10.264;2023-05-10T05:56:58;98978.06;;;16.71;69.31
79400;BME280;68856;45.586;10.264;2023-05-10T05:59:25;98982.50;;;16.53;69.19
79400;BME280;68856;45.586;10.264;2023-05-10T06:01:51;98989.16;;;16.29;69.44
79400;BME280;68856;45.586;10.264;2023-05-10T06:04:18;98994.22;;;16.21;70.01
79400;BME280;68856;45.586;10.264;2023-05-10T06:06:45;98991.59;;;16.49;69.30
79400;BME280;68856;45.586;10.264;2023-05-10T06:09:12;98991.00;;;16.01;69.94
79400;BME280;68856;45.586;10.264;2023-05-10T06:11:38;99001.94;;;16.19;69.69
79400;BME280;68856;45.586;10.264;2023-05-10T06:14:05;98996.16;;;16.21;70.02
79400;BME280;68856;45.586;10.264;2023-05-10T06:16:36;99008.75;;;16.03;70.22
79400;BME280;68856;45.586;10.264;2023-05-10T06:19:02;99003.59;;;16.20;70.45
79400;BME280;68856;45.586;10.264;2023-05-10T06:21:29;99004.84;;;16.42;69.39
79400;BME280;68856;45.586;10.264;2023-05-10T06:23:56;99005.84;;;16.32;70.00
79400;BME280;68856;45.586;10.264;2023-05-10T06:26:22;99008.09;;;16.11;70.14
79400;BME280;68856;45.586;10.264;2023-05-10T06:28:48;99005.03;;;16.32;69.64
79400;BME280;68856;45.586;10.264;2023-05-10T06:31:14;99003.34;;;16.49;69.38
79400;BME280;68856;45.586;10.264;2023-05-10T06:33:41;99009.50;;;16.60;68.71
79400;BME280;68856;45.586;10.264;2023-05-10T06:36:08;99015.16;;;16.31;69.63
79400;BME280;68856;45.586;10.264;2023-05-10T06:38:34;99021.63;;;16.21;70.68
79400;BME280;68856;45.586;10.264;2023-05-10T06:41:00;99019.91;;;16.44;70.08
79400;BME280;68856;45.586;10.264;2023-05-10T06:43:27;99017.38;;;16.48;69.68
79400;BME280;68856;45.586;10.264;2023-05-10T06:45:54;99021.22;;;16.47;69.60
79400;BME280;68856;45.586;10.264;2023-05-10T06:48:20;99005.53;;;16.52;69.86
79400;BME280;68856;45.586;10.264;2023-05-10T06:50:47;99013.31;;;16.45;69.39
79400;BME280;68856;45.586;10.264;2023-05-10T06:53:13;99017.88;;;16.50;69.86
79400;BME280;68856;45.586;10.264;2023-05-10T06:55:39;99009.31;;;16.56;69.15
79400;BME280;68856;45.586;10.264;2023-05-10T06:58:06;99008.41;;;16.42;69.86
79400;BME280;68856;45.586;10.264;2023-05-10T07:00:32;99003.97;;;16.46;69.44
79400;BME280;68856;45.586;10.264;2023-05-10T07:02:59;99008.56;;;16.51;69.83
79400;BME280;68856;45.586;10.264;2023-05-10T07:05:25;99013.81;;;16.47;69.83
79400;BME280;68856;45.586;10.264;2023-05-10T07:07:53;99011.38;;;16.46;69.53
79400;BME280;68856;45.586;10.264;2023-05-10T07:10:20;99016.88;;;16.46;69.56
79400;BME280;68856;45.586;10.264;2023-05-10T07:12:46;99014.94;;;16.46;69.59
79400;BME280;68856;45.586;10.264;2023-05-10T07:15:12;99017.13;;;16.31;69.64
79400;BME280;68856;45.586;10.264;2023-05-10T07:17:38;99021.63;;;16.21;70.39
79400;BME280;68856;45.586;10.264;2023-05-10T07:20:05;99009.25;;;16.43;69.50
79400;BME280;68856;45.586;10.264;2023-05-10T07:22:32;99010.06;;;16.43;69.40
79400;BME280;68856;45.586;10.264;2023-05-10T07:24:58;99008.34;;;16.47;69.53
79400;BME280;68856;45.586;10.264;2023-05-10T07:27:24;99021.28;;;15.91;70.29
79400;BME280;68856;45.586;10.264;2023-05-10T07:29:51;99031.66;;;15.94;70.39
79400;BME280;68856;45.586;10.264;2023-05-10T07:32:17;99033.66;;;16.07;69.82
79400;BME280;68856;45.586;10.264;2023-05-10T07:34:43;99031.56;;;16.17;69.47
79400;BME280;68856;45.586;10.264;2023-05-10T07:37:10;99038.22;;;16.30;70.38
79400;BME280;68856;45.586;10.264;2023-05-10T07:39:36;99033.41;;;16.41;70.72
79400;BME280;68856;45.586;10.264;2023-05-10T07:42:03;99035.41;;;15.98;70.39
79400;BME280;68856;45.586;10.264;2023-05-10T07:44:29;99043.34;;;15.99;69.77
79400;BME280;68856;45.586;10.264;2023-05-10T07:46:56;99040.31;;;16.19;70.33
79400;BME280;68856;45.586;10.264;2023-05-10T07:49:22;99037.41;;;16.30;71.09
79400;BME280;68856;45.586;10.264;2023-05-10T07:51:50;99043.69;;;16.49;70.55
79400;BME280;68856;45.586;10.264;2023-05-10T07:54:16;99045.81;;;16.52;70.91
79400;BME280;68856;45.586;10.264;2023-05-10T07:56:43;99042.38;;;16.46;71.00
79400;BME280;68856;45.586;10.264;2023-05-10T07:59:16;99046.38;;;16.54;70.34
79400;BME280;68856;45.586;10.264;2023-05-10T08:01:43;99047.13;;;16.59;69.75
79400;BME280;68856;45.586;10.264;2023-05-10T08:04:10;99042.28;;;16.51;69.67
79400;BME280;68856;45.586;10.264;2023-05-10T08:06:37;99051.56;;;16.55;69.26
79400;BME280;68856;45.586;10.264;2023-05-10T08:09:03;99047.56;;;16.10;69.87
79400;BME280;68856;45.586;10.264;2023-05-10T08:11:30;99049.03;;;16.21;70.26
79400;BME280;68856;45.586;10.264;2023-05-10T08:13:56;99052.38;;;16.37;69.75
79400;BME280;68856;45.586;10.264;2023-05-10T08:16:22;99054.94;;;16.47;69.19
79400;BME280;68856;45.586;10.264;2023-05-10T08:18:49;99060.66;;;16.51;69.37
79400;BME280;68856;45.586;10.264;2023-05-10T08:21:16;99058.00;;;16.46;69.76
79400;BME280;68856;45.586;10.264;2023-05-10T08:23:43;99055.94;;;16.38;70.15
79400;BME280;68856;45.586;10.264;2023-05-10T08:26:09;99052.44;;;16.32;70.31
79400;BME280;68856;45.586;10.264;2023-05-10T08:28:36;99058.09;;;16.22;70.54
79400;BME280;68856;45.586;10.264;2023-05-10T08:31:04;99055.63;;;16.39;70.43
79400;BME280;68856;45.586;10.264;2023-05-10T08:33:30;99061.69;;;16.55;70.83
79400;BME280;68856;45.586;10.264;2023-05-10T08:35:56;99060.66;;;16.51;69.53
79400;BME280;68856;45.586;10.264;2023-05-10T08:38:23;99049.72;;;16.13;70.95
79400;BME280;68856;45.586;10.264;2023-05-10T08:40:50;99053.34;;;16.09;71.29
79400;BME280;68856;45.586;10.264;2023-05-10T08:43:24;99056.00;;;16.33;70.86
79400;BME280;68856;45.586;10.264;2023-05-10T08:45:54;99050.59;;;16.46;70.39
79400;BME280;68856;45.586;10.264;2023-05-10T08:48:24;99054.72;;;16.62;69.32
79400;BME280;68856;45.586;10.264;2023-05-10T08:50:53;99054.84;;;16.20;70.94
79400;BME280;68856;45.586;10.264;2023-05-10T08:53:25;99053.63;;;16.26;71.23
79400;BME280;68856;45.586;10.264;2023-05-10T08:55:53;99049.88;;;16.22;72.47
79400;BME280;68856;45.586;10.264;2023-05-10T08:58:20;99053.25;;;16.51;70.79
79400;BME280;68856;45.586;10.264;2023-05-10T09:00:48;99045.69;;;16.43;71.18
79400;BME280;68856;45.586;10.264;2023-05-10T09:03:15;99060.00;;;16.21;71.51
79400;BME280;68856;45.586;10.264;2023-05-10T09:05:42;99054.00;;;16.38;71.63
79400;BME280;68856;45.586;10.264;2023-05-10T09:08:09;99055.25;;;16.46;70.91
79400;BME280;68856;45.586;10.264;2023-05-10T09:10:36;99057.66;;;16.15;71.79
79400;BME280;68856;45.586;10.264;2023-05-10T09:13:03;99060.00;;;16.03;71.86
79400;BME280;68856;45.586;10.264;2023-05-10T09:15:30;99062.47;;;16.04;71.39
79400;BME280;68856;45.586;10.264;2023-05-10T09:17:56;99062.97;;;16.44;70.59
79400;BME280;68856;45.586;10.264;2023-05-10T09:20:25;99062.56;;;16.50;70.80
79400;BME280;68856;45.586;10.264;2023-05-10T09:22:51;99052.78;;;16.63;70.20
79400;BME280;68856;45.586;10.264;2023-05-10T09:25:17;99050.56;;;16.65;69.64
79400;BME280;68856;45.586;10.264;2023-05-10T09:27:48;99051.81;;;16.72;69.74
79400;BME280;68856;45.586;10.264;2023-05-10T09:30:35;99050.09;;;16.76;70.85
79400;BME280;68856;45.586;10.264;2023-05-10T09:33:01;99050.94;;;16.40;71.95
79400;BME280;68856;45.586;10.264;2023-05-10T09:35:30;99049.22;;;16.62;70.77
79400;BME280;68856;45.586;10.264;2023-05-10T09:38:00;99041.47;;;16.69;70.21
79400;BME280;68856;45.586;10.264;2023-05-10T09:40:28;99048.88;;;16.69;70.15
79400;BME280;68856;45.586;10.264;2023-05-10T09:43:08;99047.38;;;16.76;69.15
79400;BME280;68856;45.586;10.264;2023-05-10T09:45:36;99046.13;;;16.69;70.73
79400;BME280;68856;45.586;10.264;2023-05-10T09:48:03;99043.19;;;16.79;71.22
79400;BME280;68856;45.586;10.264;2023-05-10T09:50:30;99043.28;;;16.74;71.18
79400;BME280;68856;45.586;10.264;2023-05-10T09:52:59;99040.38;;;16.84;70.68
79400;BME280;68856;45.586;10.264;2023-05-10T09:55:43;99036.81;;;16.83;69.81
79400;BME280;68856;45.586;10.264;2023-05-10T09:58:11;99033.38;;;16.92;69.34
79400;BME280;68856;45.586;10.264;2023-05-10T10:00:40;99032.69;;;17.00;69.22
79400;BME280;68856;45.586;10.264;2023-05-10T10:03:12;99031.63;;;16.96;68.47
79400;BME280;68856;45.586;10.264;2023-05-10T10:05:41;99026.31;;;16.72;68.14
79400;BME280;68856;45.586;10.264;2023-05-10T10:08:12;99027.47;;;16.85;69.38
79400;BME280;68856;45.586;10.264;2023-05-10T10:10:39;99024.31;;;16.77;68.25
79400;BME280;68856;45.586;10.264;2023-05-10T10:13:12;99023.59;;;16.72;68.72
79400;BME280;68856;45.586;10.264;2023-05-10T10:15:39;99023.03;;;16.38;70.24
79400;BME280;68856;45.586;10.264;2023-05-10T10:18:05;99019.59;;;16.64;70.27
79400;BME280;68856;45.586;10.264;2023-05-10T10:20:32;99029.09;;;16.86;70.47
79400;BME280;68856;45.586;10.264;2023-05-10T10:22:58;99028.97;;;16.91;70.15
79400;BME280;68856;45.586;10.264;2023-05-10T10:25:25;99024.94;;;17.02;70.82
79400;BME280;68856;45.586;10.264;2023-05-10T10:30:25;99031.03;;;16.99;70.50
79400;BME280;68856;45.586;10.264;2023-05-10T10:35:32;99036.56;;;17.12;70.18
79400;BME280;68856;45.586;10.264;2023-05-10T10:37:59;99034.81;;;17.16;71.50
79400;BME280;68856;45.586;10.264;2023-05-10T10:40:31;99021.63;;;17.18;70.59
79400;BME280;68856;45.586;10.264;2023-05-10T10:42:58;99031.72;;;16.91;71.60
79400;BME280;68856;45.586;10.264;2023-05-10T10:45:44;99035.09;;;17.01;71.32
79400;BME280;68856;45.586;10.264;2023-05-10T10:48:23;99027.19;;;17.00;72.25
79400;BME280;68856;45.586;10.264;2023-05-10T10:50:56;99035.53;;;17.08;71.81
79400;BME280;68856;45.586;10.264;2023-05-10T10:53:27;99020.81;;;17.18;71.62
79400;BME280;68856;45.586;10.264;2023-05-10T10:56:06;99022.63;;;17.22;71.81
79400;BME280;68856;45.586;10.264;2023-05-10T10:58:34;99023.34;;;17.14;72.25
79400;BME280;68856;45.586;10.264;2023-05-10T11:01:14;99021.03;;;17.21;72.64
79400;BME280;68856;45.586;10.264;2023-05-10T11:04:27;99030.34;;;17.20;72.25
79400;BME280;68856;45.586;10.264;2023-05-10T11:06:37;99025.56;;;17.12;72.12
79400;BME280;68856;45.586;10.264;2023-05-10T11:09:11;99015.59;;;17.16;71.20
79400;BME280;68856;45.586;10.264;2023-05-10T11:12:07;99013.06;;;17.06;71.00
79400;BME280;68856;45.586;10.264;2023-05-10T11:14:34;99013.34;;;16.91;69.26
79400;BME280;68856;45.586;10.264;2023-05-10T11:17:01;99016.00;;;17.10;69.37
79400;BME280;68856;45.586;10.264;2023-05-10T11:19:28;99013.47;;;17.00;69.83
79400;BME280;68856;45.586;10.264;2023-05-10T11:24:30;99015.06;;;16.87;68.37
79400;BME280;68856;45.586;10.264;2023-05-10T11:26:57;99007.38;;;17.03;67.35
79400;BME280;68856;45.586;10.264;2023-05-10T11:29:23;98999.75;;;17.00;67.83
79400;BME280;68856;45.586;10.264;2023-05-10T11:31:52;99004.59;;;16.89;68.78
79400;BME280;68856;45.586;10.264;2023-05-10T11:34:31;99012.94;;;16.84;69.67
79400;BME280;68856;45.586;10.264;2023-05-10T11:37:01;99012.63;;;16.86;67.31
79400;BME280;68856;45.586;10.264;2023-05-10T11:39:28;99006.94;;;16.96;68.75
79400;BME280;68856;45.586;10.264;2023-05-10T11:41:55;99009.31;;;17.02;69.43
79400;BME280;68856;45.586;10.264;2023-05-10T11:44:22;99006.66;;;16.97;70.75
79400;BME280;68856;45.586;10.264;2023-05-10T11:46:49;99010.66;;;17.18;70.12
79400;BME280;68856;45.586;10.264;2023-05-10T11:49:15;99006.28;;;17.31;69.31
79400;BME280;68856;45.586;10.264;2023-05-10T11:51:42;99008.28;;;17.25;68.30
79400;BME280;68856;45.586;10.264;2023-05-10T11:54:11;99018.84;;;17.32;68.85
79400;BME280;68856;45.586;10.264;2023-05-10T11:56:39;99018.47;;;17.38;69.10
79400;BME280;68856;45.586;10.264;2023-05-10T11:59:06;99021.00;;;17.49;69.89
79400;BME280;68856;45.586;10.264;2023-05-10T12:01:32;99022.44;;;17.32;68.34
79400;BME280;68856;45.586;10.264;2023-05-10T12:03:59;99022.44;;;17.46;68.47
79400;BME280;68856;45.586;10.264;2023-05-10T12:06:32;99025.78;;;17.43;70.01
79400;BME280;68856;45.586;10.264;2023-05-10T12:09:01;99022.72;;;17.04;68.91
79400;BME280;68856;45.586;10.264;2023-05-10T12:11:31;99021.91;;;17.17;69.28
79400;BME280;68856;45.586;10.264;2023-05-10T12:13:58;99015.31;;;17.31;68.28
79400;BME280;68856;45.586;10.264;2023-05-10T12:16:26;99017.66;;;17.38;67.83
79400;BME280;68856;45.586;10.264;2023-05-10T12:18:58;99019.19;;;17.44;68.22
79400;BME280;68856;45.586;10.264;2023-05-10T12:21:26;99018.25;;;17.49;69.58
79400;BME280;68856;45.586;10.264;2023-05-10T12:23:58;99018.19;;;17.54;69.70
79400;BME280;68856;45.586;10.264;2023-05-10T12:26:25;99018.16;;;17.40;68.57
79400;BME280;68856;45.586;10.264;2023-05-10T12:28:55;99014.31;;;17.55;69.24
79400;BME280;68856;45.586;10.264;2023-05-10T12:31:21;99020.59;;;17.55;69.02
79400;BME280;68856;45.586;10.264;2023-05-10T12:33:47;99017.47;;;17.62;68.10
79400;BME280;68856;45.586;10.264;2023-05-10T12:36:16;99025.50;;;17.44;67.93
79400;BME280;68856;45.586;10.264;2023-05-10T12:38:44;99022.75;;;17.31;68.33
79400;BME280;68856;45.586;10.264;2023-05-10T12:41:15;99023.75;;;17.35;69.50
79400;BME280;68856;45.586;10.264;2023-05-10T12:43:42;99023.25;;;17.33;69.28
79400;BME280;68856;45.586;10.264;2023-05-10T12:46:13;99031.91;;;17.26;68.98
79400;BME280;68856;45.586;10.264;2023-05-10T12:48:41;99022.94;;;17.21;69.20
79400;BME280;68856;45.586;10.264;2023-05-10T12:51:07;99020.69;;;17.09;67.49
79400;BME280;68856;45.586;10.264;2023-05-10T12:53:41;99024.22;;;16.96;67.23
79400;BME280;68856;45.586;10.264;2023-05-10T12:56:07;99027.47;;;16.85;69.24
79400;BME280;68856;45.586;10.264;2023-05-10T12:58:34;99027.28;;;16.62;68.78
79400;BME280;68856;45.586;10.264;2023-05-10T13:01:01;99027.97;;;16.54;69.94
79400;BME280;68856;45.586;10.264;2023-05-10T13:03:28;99025.75;;;16.89;69.52
79400;BME280;68856;45.586;10.264;2023-05-10T13:05:54;99035.19;;;16.96;68.19
79400;BME280;68856;45.586;10.264;2023-05-10T13:08:20;99031.13;;;16.80;69.99
79400;BME280;68856;45.586;10.264;2023-05-10T13:10:46;99032.53;;;16.77;71.18
79400;BME280;68856;45.586;10.264;2023-05-10T13:13:12;99025.59;;;16.66;71.05
79400;BME280;68856;45.586;10.264;2023-05-10T13:15:39;99023.31;;;16.55;72.23
79400;BME280;68856;45.586;10.264;2023-05-10T13:18:05;99020.44;;;16.78;70.77
79400;BME280;68856;45.586;10.264;2023-05-10T13:20:31;99025.28;;;16.49;71.21
79400;BME280;68856;45.586;10.264;2023-05-10T13:22:57;99022.06;;;16.79;70.52
79400;BME280;68856;45.586;10.264;2023-05-10T13:25:24;99019.59;;;16.64;69.60
79400;BME280;68856;45.586;10.264;2023-05-10T13:27:50;99017.16;;;16.63;70.68